createdAt,value
2022-12-19T00:02:36.781Z,13.00
2022-12-19T00:06:46.025Z,13.00
2022-12-19T00:10:59.450Z,13.00
2022-12-19T00:15:11.312Z,13.10
2022-12-19T00:19:20.646Z,13.00
2022-12-19T00:23:33.066Z,13.10
2022-12-19T00:27:42.186Z,13.10
2022-12-19T00:31:52.869Z,13.00
2022-12-19T00:36:03.009Z,13.00
2022-12-19T00:40:13.427Z,13.00
2022-12-19T00:44:22.626Z,12.90
2022-12-19T00:48:33.545Z,13.00
2022-12-19T00:52:42.687Z,12.90
2022-12-19T00:56:51.847Z,12.90
2022-12-19T01:01:00.988Z,12.90
2022-12-19T01:05:12.087Z,13.00
2022-12-19T01:09:21.968Z,13.00
2022-12-19T01:13:33.389Z,13.00
2022-12-19T01:17:45.126Z,12.90
2022-12-19T01:21:56.288Z,13.00
2022-12-19T01:26:06.087Z,13.00
2022-12-19T01:30:15.708Z,13.00
2022-12-19T01:34:26.125Z,13.00
2022-12-19T01:38:37.750Z,12.90
2022-12-19T01:42:46.848Z,13.00
2022-12-19T01:46:59.488Z,13.10
2022-12-19T01:51:15.308Z,13.10
2022-12-19T01:55:27.026Z,13.10
2022-12-19T01:59:39.656Z,13.20
2022-12-19T02:03:50.534Z,13.20
2022-12-19T02:08:00.515Z,13.30
2022-12-19T02:12:11.416Z,13.40
2022-12-19T02:16:31.532Z,13.40
2022-12-19T02:21:23.139Z,13.30
2022-12-19T02:25:56.680Z,13.40
2022-12-19T02:30:12.260Z,13.40
2022-12-19T02:34:29.833Z,13.40
2022-12-19T02:38:45.431Z,13.40
2022-12-19T02:43:01.497Z,13.40
2022-12-19T02:47:12.353Z,13.30
2022-12-19T02:51:24.199Z,13.40
2022-12-19T02:55:44.645Z,13.40
2022-12-19T03:00:05.626Z,13.30
2022-12-19T03:04:24.107Z,13.30
2022-12-19T03:08:46.565Z,13.30
2022-12-19T03:13:01.106Z,13.30
2022-12-19T03:17:11.533Z,13.30
2022-12-19T03:21:25.170Z,13.30
2022-12-19T03:25:36.572Z,13.30
2022-12-19T03:29:52.474Z,13.20
2022-12-19T03:34:04.262Z,13.20
2022-12-19T03:38:15.859Z,13.20
2022-12-19T03:42:46.240Z,13.10
2022-12-19T03:47:01.820Z,13.10
2022-12-19T03:51:23.939Z,13.20
2022-12-19T03:55:39.219Z,13.20
2022-12-19T04:00:02.088Z,13.20
2022-12-19T04:04:15.380Z,13.20
2022-12-19T04:08:26.125Z,13.20
2022-12-19T04:12:39.368Z,13.10
2022-12-19T04:16:55.220Z,13.10
2022-12-19T04:21:10.021Z,12.90
2022-12-19T04:25:29.038Z,12.90
2022-12-19T04:29:40.283Z,12.90
2022-12-19T04:33:52.802Z,12.90
2022-12-19T04:38:02.227Z,13.00
2022-12-19T04:42:11.921Z,13.00
2022-12-19T04:46:22.143Z,12.90
2022-12-19T04:50:35.120Z,13.00
2022-12-19T04:54:44.879Z,12.90
2022-12-19T04:58:58.917Z,12.90
2022-12-19T05:03:09.133Z,13.00
2022-12-19T05:07:21.299Z,13.00
2022-12-19T05:11:30.563Z,13.00
2022-12-19T05:15:39.793Z,13.00
2022-12-19T05:19:50.018Z,13.00
2022-12-19T05:24:01.336Z,12.90
2022-12-19T05:28:11.656Z,13.00
2022-12-19T05:32:21.579Z,12.90
2022-12-19T05:36:32.619Z,12.90
2022-12-19T05:40:48.521Z,12.90
2022-12-19T05:44:58.239Z,12.90
2022-12-19T05:49:07.475Z,12.90
2022-12-19T05:53:17.566Z,12.80
2022-12-19T05:57:30.455Z,12.70
2022-12-19T06:01:39.813Z,12.70
2022-12-19T06:05:49.180Z,12.60
2022-12-19T06:09:58.271Z,12.50
2022-12-19T06:14:08.918Z,12.60
2022-12-19T06:18:18.192Z,12.70
2022-12-19T06:22:27.412Z,12.80
2022-12-19T06:26:36.552Z,12.80
2022-12-19T06:30:47.292Z,12.80
2022-12-19T06:35:04.107Z,12.90
2022-12-19T06:39:16.157Z,12.80
2022-12-19T06:43:27.611Z,12.90
2022-12-19T06:47:38.250Z,12.80
2022-12-19T06:51:47.730Z,12.80
2022-12-19T06:55:59.899Z,12.90
2022-12-19T07:00:10.671Z,12.90
2022-12-19T07:04:24.968Z,12.90
2022-12-19T07:08:34.568Z,12.80
2022-12-19T07:12:43.793Z,12.90
2022-12-19T07:16:54.992Z,12.90
2022-12-19T07:21:07.849Z,12.90
2022-12-19T07:25:18.428Z,12.90
2022-12-19T07:29:28.509Z,12.90
2022-12-19T07:33:37.733Z,12.90
2022-12-19T07:37:48.527Z,13.00
2022-12-19T07:41:58.049Z,13.00
2022-12-19T07:46:07.481Z,13.00
2022-12-19T07:50:16.869Z,13.00
2022-12-19T07:54:27.687Z,13.00
2022-12-19T07:58:36.807Z,13.00
2022-12-19T08:02:46.313Z,13.00
2022-12-19T08:06:55.806Z,13.00
2022-12-19T08:11:17.587Z,13.00
2022-12-19T08:15:26.807Z,13.00
2022-12-19T08:19:35.894Z,13.10
2022-12-19T08:23:46.891Z,13.10
2022-12-19T08:27:58.608Z,13.10
2022-12-19T08:32:08.791Z,13.10
2022-12-19T08:36:23.375Z,13.10
2022-12-19T08:40:32.748Z,13.10
2022-12-19T08:44:51.849Z,13.10
2022-12-19T08:49:01.497Z,13.00
2022-12-19T08:53:12.186Z,13.10
2022-12-19T08:57:22.109Z,13.20
2022-12-19T09:01:33.871Z,13.20
2022-12-19T09:05:57.825Z,13.20
2022-12-19T09:10:17.074Z,13.30
2022-12-19T09:14:35.725Z,13.30
2022-12-19T09:19:07.031Z,13.30
2022-12-19T09:28:28.489Z,13.30
2022-12-19T09:32:40.943Z,13.40
2022-12-19T09:42:17.090Z,13.40
2022-12-19T09:46:36.668Z,13.60
2022-12-19T10:21:00.613Z,13.70
2022-12-19T10:30:17.651Z,13.80
2022-12-19T12:52:04.851Z,14.10
2022-12-19T15:23:05.406Z,13.80
2022-12-19T15:27:44.995Z,13.80
2022-12-19T15:32:51.013Z,13.80
2022-12-19T15:56:11.472Z,13.80
2022-12-19T16:10:19.171Z,13.70
2022-12-19T16:14:34.471Z,13.70
2022-12-19T16:18:47.751Z,13.80
2022-12-19T16:22:57.269Z,13.70
2022-12-19T16:27:08.550Z,13.70
2022-12-19T16:31:25.838Z,13.70
2022-12-19T16:36:03.052Z,13.80
2022-12-19T16:40:04.936Z,13.80
2022-12-19T16:44:19.423Z,13.80
2022-12-19T17:55:18.253Z,13.60
2022-12-19T18:05:10.569Z,13.60
2022-12-19T18:09:37.513Z,13.60
2022-12-19T18:23:54.010Z,13.40
2022-12-19T18:28:06.411Z,13.50
2022-12-19T18:32:21.250Z,13.50
2022-12-19T18:36:31.652Z,13.50
2022-12-19T18:40:41.330Z,13.50
2022-12-19T18:44:50.608Z,13.50
2022-12-19T18:49:01.811Z,13.40
2022-12-19T18:53:13.835Z,13.30
2022-12-19T18:57:22.973Z,13.20
2022-12-19T19:01:32.282Z,13.30
2022-12-19T19:05:44.149Z,13.30
2022-12-19T19:09:53.350Z,13.30
2022-12-19T19:14:02.509Z,13.30
2022-12-19T19:18:11.716Z,13.30
2022-12-19T19:22:22.389Z,13.20
2022-12-19T19:26:31.595Z,13.20
2022-12-19T19:30:42.070Z,13.20
2022-12-19T19:34:51.639Z,12.90
2022-12-19T19:39:02.543Z,12.90
2022-12-19T19:43:11.709Z,12.90
2022-12-19T19:47:26.885Z,12.90
2022-12-19T19:51:36.210Z,13.00
2022-12-19T19:55:46.810Z,13.10
2022-12-19T19:59:56.109Z,13.20
2022-12-19T20:04:05.745Z,13.10
2022-12-19T20:08:15.567Z,13.20
2022-12-19T20:12:26.368Z,13.10
2022-12-19T20:16:36.383Z,13.00
2022-12-19T20:20:48.968Z,12.90
2022-12-19T20:24:58.786Z,13.00
2022-12-19T20:29:11.750Z,13.00
2022-12-19T20:33:21.108Z,13.00
2022-12-19T20:37:30.933Z,13.10
2022-12-19T20:41:40.628Z,13.00
2022-12-19T20:46:02.254Z,13.00
2022-12-19T20:50:16.197Z,13.00
2022-12-19T20:54:28.390Z,13.00
2022-12-19T20:58:40.561Z,13.00
2022-12-19T21:07:26.568Z,13.00
2022-12-19T21:11:42.707Z,13.30
2022-12-19T21:16:02.407Z,13.20
2022-12-19T21:20:17.850Z,13.30
2022-12-19T21:24:38.231Z,13.40
2022-12-19T21:28:49.054Z,13.40
2022-12-19T21:32:58.571Z,13.50
2022-12-19T21:37:09.452Z,13.50
2022-12-19T21:41:20.344Z,13.50
2022-12-19T21:45:30.765Z,13.50
2022-12-19T21:50:16.769Z,13.40
2022-12-19T21:54:34.700Z,13.40
2022-12-19T21:58:44.377Z,13.40
2022-12-19T22:03:13.434Z,13.40
2022-12-19T22:07:24.135Z,13.40
2022-12-19T22:11:57.871Z,13.40
2022-12-19T22:16:10.184Z,13.50
2022-12-19T22:20:21.612Z,13.50
2022-12-19T22:24:32.373Z,13.50
2022-12-19T22:28:53.116Z,13.50
2022-12-19T22:33:02.593Z,13.50
2022-12-19T22:37:13.657Z,13.50
2022-12-19T22:41:23.380Z,13.50
2022-12-19T22:45:35.706Z,13.60
2022-12-19T22:49:45.916Z,13.60
2022-12-19T22:53:55.773Z,13.60
2022-12-19T22:58:05.493Z,13.60
2022-12-19T23:02:16.761Z,13.60
2022-12-19T23:06:34.286Z,13.60
2022-12-19T23:10:43.854Z,13.60
2022-12-19T23:14:58.735Z,13.50
2022-12-19T23:19:14.095Z,13.40
2022-12-19T23:23:25.973Z,13.40
2022-12-19T23:27:39.775Z,13.40
2022-12-19T23:31:51.396Z,13.50
2022-12-19T23:37:00.435Z,13.50
2022-12-19T23:40:54.875Z,13.50
2022-12-19T23:45:06.554Z,13.50
2022-12-19T23:49:20.834Z,13.50
2022-12-19T23:53:40.215Z,13.50
2022-12-19T23:57:49.584Z,13.40
